Time;durP1;ratioP1;P1;durP2;ratioP2;P2;SDS_P1;SDS_P2;PMS_P1;PMS_P2;Temp;Humidity;BMP_temperature;BMP_pressure;BME280_temperature;BME280_humidity;BME280_pressure;Samples;Min_cycle;Max_cycle;Signal;HPM_P1;HPM_P2
2023/07/30 00:02:07;;;;;;;8.95;3.95;;;;;;;;;;10364180;28;20026;-58
2023/07/30 00:07:09;;;;;;;6.78;4.18;;;;;;;;;;10369414;28;20386;-58
2023/07/30 00:12:09;;;;;;;5.35;4.25;;;;;;;;;;10355487;28;20049;-58
2023/07/30 00:17:10;;;;;;;4.53;3.47;;;;;;;;;;10344855;28;20018;-58
2023/07/30 00:22:10;;;;;;;6.40;4.00;;;;;;;;;;10347303;28;20053;-58
2023/07/30 00:27:11;;;;;;;6.45;4.15;;;;;;;;;;10349235;28;20030;-57
2023/07/30 00:32:15;;;;;;;7.63;4.25;;;;;;;;;;10350458;28;20103;-58
2023/07/30 00:37:16;;;;;;;7.30;4.25;;;;;;;;;;10344978;28;20042;-57
2023/07/30 00:42:16;;;;;;;6.85;4.25;;;;;;;;;;10360198;28;20034;-57
2023/07/30 00:47:17;;;;;;;8.88;4.47;;;;;;;;;;10355241;28;20030;-57
2023/07/30 00:52:21;;;;;;;7.20;4.07;;;;;;;;;;10350712;28;20035;-57
2023/07/30 00:57:22;;;;;;;10.80;4.28;;;;;;;;;;10354424;28;20038;-57
2023/07/30 01:02:23;;;;;;;7.78;4.05;;;;;;;;;;10354364;28;20034;-58
2023/07/30 01:07:24;;;;;;;6.97;4.45;;;;;;;;;;10356052;28;20375;-58
2023/07/30 01:12:26;;;;;;;7.80;4.35;;;;;;;;;;10353738;28;20022;-57
2023/07/30 01:17:27;;;;;;;7.90;4.00;;;;;;;;;;10341603;28;20034;-58
2023/07/30 01:22:28;;;;;;;10.93;4.18;;;;;;;;;;10345695;28;20030;-58
2023/07/30 01:27:31;;;;;;;8.50;4.25;;;;;;;;;;10361271;28;20041;-58
2023/07/30 01:32:33;;;;;;;9.45;4.80;;;;;;;;;;10348170;28;20478;-58
2023/07/30 01:37:34;;;;;;;8.00;4.57;;;;;;;;;;10363563;28;20045;-58
2023/07/30 01:42:35;;;;;;;10.60;4.40;;;;;;;;;;10335134;28;20054;-58
2023/07/30 01:47:35;;;;;;;10.38;3.90;;;;;;;;;;10345365;28;20149;-58
2023/07/30 01:52:36;;;;;;;7.68;4.70;;;;;;;;;;10353539;28;20038;-58
2023/07/30 01:57:36;;;;;;;13.10;5.50;;;;;;;;;;10352709;28;20044;-58
2023/07/30 02:02:37;;;;;;;10.20;5.60;;;;;;;;;;10345990;28;20029;-58
2023/07/30 02:07:37;;;;;;;9.05;5.25;;;;;;;;;;10351520;28;20520;-58
2023/07/30 02:12:38;;;;;;;10.73;5.35;;;;;;;;;;10352262;28;20377;-58
2023/07/30 02:17:38;;;;;;;9.60;5.38;;;;;;;;;;10349451;28;20385;-58
2023/07/30 02:22:39;;;;;;;6.80;4.57;;;;;;;;;;10350443;28;20370;-59
2023/07/30 02:27:40;;;;;;;6.32;5.00;;;;;;;;;;10362941;28;20449;-59
2023/07/30 02:32:41;;;;;;;9.40;5.10;;;;;;;;;;10356917;28;20092;-58
2023/07/30 02:37:42;;;;;;;8.00;4.80;;;;;;;;;;10359099;28;20462;-58
2023/07/30 02:42:42;;;;;;;10.52;6.00;;;;;;;;;;10353655;28;20084;-58
2023/07/30 02:47:43;;;;;;;8.85;5.22;;;;;;;;;;10364003;28;20186;-57
2023/07/30 02:52:44;;;;;;;5.15;4.20;;;;;;;;;;10363953;28;20232;-58
2023/07/30 02:57:45;;;;;;;6.20;4.40;;;;;;;;;;10352284;28;20040;-58
2023/07/30 03:02:46;;;;;;;7.10;4.50;;;;;;;;;;10347633;28;20038;-58
2023/07/30 03:07:46;;;;;;;6.18;4.03;;;;;;;;;;10349656;28;20100;-58
2023/07/30 03:12:47;;;;;;;8.48;4.18;;;;;;;;;;10339136;28;20042;-57
2023/07/30 03:17:47;;;;;;;5.05;3.53;;;;;;;;;;10352796;28;20062;-57
2023/07/30 03:22:48;;;;;;;5.07;3.28;;;;;;;;;;10357590;28;20030;-58
2023/07/30 03:27:48;;;;;;;5.75;3.50;;;;;;;;;;10353976;28;20030;-58
2023/07/30 03:32:49;;;;;;;6.57;3.33;;;;;;;;;;10354953;28;20044;-58
2023/07/30 03:37:51;;;;;;;4.88;2.90;;;;;;;;;;10349711;28;20077;-58
2023/07/30 03:42:51;;;;;;;6.82;3.13;;;;;;;;;;10357905;28;20030;-58
2023/07/30 03:47:52;;;;;;;3.75;1.92;;;;;;;;;;10356263;28;20033;-58
2023/07/30 03:52:53;;;;;;;5.07;1.73;;;;;;;;;;10341375;28;20587;-58
2023/07/30 03:57:53;;;;;;;1.25;1.15;;;;;;;;;;10357281;28;20404;-58
2023/07/30 04:02:54;;;;;;;2.35;1.30;;;;;;;;;;10351027;28;20033;-58
2023/07/30 04:07:54;;;;;;;1.63;1.02;;;;;;;;;;10357348;28;20030;-58
2023/07/30 04:12:55;;;;;;;2.45;1.13;;;;;;;;;;10354414;28;20022;-58
2023/07/30 04:17:55;;;;;;;3.10;1.30;;;;;;;;;;10343170;28;20030;-58
2023/07/30 04:22:56;;;;;;;2.53;1.20;;;;;;;;;;10359446;28;20065;-58
2023/07/30 04:27:57;;;;;;;0.95;0.93;;;;;;;;;;10349520;28;20033;-58
2023/07/30 04:32:58;;;;;;;2.92;1.17;;;;;;;;;;10354540;28;20029;-58
2023/07/30 04:37:59;;;;;;;5.10;1.10;;;;;;;;;;10369591;28;20042;-57
2023/07/30 04:42:59;;;;;;;4.28;1.27;;;;;;;;;;10361216;28;20057;-58
2023/07/30 04:48:00;;;;;;;1.73;1.30;;;;;;;;;;10364313;28;20061;-57
2023/07/30 04:53:00;;;;;;;3.15;1.60;;;;;;;;;;10356532;28;20161;-56
2023/07/30 04:58:02;;;;;;;5.78;1.60;;;;;;;;;;10345290;28;20383;-57
2023/07/30 05:03:03;;;;;;;3.28;1.70;;;;;;;;;;10363318;28;20390;-58
2023/07/30 05:08:03;;;;;;;4.63;1.92;;;;;;;;;;10350513;28;20213;-58
2023/07/30 05:13:04;;;;;;;1.90;1.30;;;;;;;;;;10346993;28;20116;-58
2023/07/30 05:18:05;;;;;;;2.55;1.52;;;;;;;;;;10348722;28;20026;-58
2023/07/30 05:23:06;;;;;;;3.25;1.40;;;;;;;;;;10359657;28;20033;-59
2023/07/30 05:28:07;;;;;;;3.13;1.40;;;;;;;;;;10367258;28;20128;-58
2023/07/30 05:33:08;;;;;;;2.25;1.40;;;;;;;;;;10358509;28;20037;-58
2023/07/30 05:38:08;;;;;;;2.92;1.40;;;;;;;;;;10357084;28;20104;-58
2023/07/30 05:43:09;;;;;;;3.00;1.55;;;;;;;;;;10357021;28;20042;-58
2023/07/30 05:48:10;;;;;;;1.70;1.30;;;;;;;;;;10357731;28;20176;-58
2023/07/30 05:53:10;;;;;;;2.33;1.30;;;;;;;;;;10359128;28;20029;-58
2023/07/30 05:58:11;;;;;;;3.08;1.25;;;;;;;;;;10360907;28;20496;-58
2023/07/30 06:03:12;;;;;;;1.40;1.30;;;;;;;;;;10350188;28;20068;-58
2023/07/30 06:08:13;;;;;;;2.72;1.23;;;;;;;;;;10347446;28;20026;-59
2023/07/30 06:13:14;;;;;;;2.30;1.30;;;;;;;;;;10354927;28;20042;-58
2023/07/30 06:18:14;;;;;;;1.10;1.00;;;;;;;;;;10364070;28;20021;-58
2023/07/30 06:23:15;;;;;;;1.45;1.20;;;;;;;;;;10351861;28;20045;-58
2023/07/30 06:28:15;;;;;;;2.58;1.30;;;;;;;;;;10358522;28;20022;-59
2023/07/30 06:33:16;;;;;;;4.45;1.27;;;;;;;;;;10363855;28;20026;-58
2023/07/30 06:38:16;;;;;;;1.88;1.10;;;;;;;;;;10362233;28;20100;-58
2023/07/30 06:43:17;;;;;;;1.25;1.10;;;;;;;;;;10362174;28;20038;-58
2023/07/30 06:48:18;;;;;;;1.63;1.52;;;;;;;;;;10356542;28;20030;-58
2023/07/30 06:53:18;;;;;;;1.67;1.27;;;;;;;;;;10366153;28;20033;-57
2023/07/30 06:58:19;;;;;;;2.20;1.08;;;;;;;;;;10364790;28;20038;-58
2023/07/30 07:03:20;;;;;;;1.00;0.95;;;;;;;;;;10365736;28;20022;-57
2023/07/30 07:08:20;;;;;;;7.30;1.25;;;;;;;;;;10353611;28;20026;-58
2023/07/30 07:13:21;;;;;;;1.20;0.98;;;;;;;;;;10351904;28;20041;-57
2023/07/30 07:18:21;;;;;;;1.13;1.02;;;;;;;;;;10365082;28;20036;-59
2023/07/30 07:23:22;;;;;;;1.35;1.25;;;;;;;;;;10364989;28;20041;-58
2023/07/30 07:28:22;;;;;;;0.75;0.75;;;;;;;;;;10352997;28;20018;-58
2023/07/30 07:33:23;;;;;;;1.73;1.00;;;;;;;;;;10350535;28;20493;-59
2023/07/30 07:38:24;;;;;;;1.15;1.00;;;;;;;;;;10357104;28;20057;-58
2023/07/30 07:43:25;;;;;;;1.63;1.02;;;;;;;;;;10351956;28;20123;-58
2023/07/30 07:48:25;;;;;;;0.98;0.93;;;;;;;;;;10351971;28;20030;-58
2023/07/30 07:53:26;;;;;;;0.80;0.80;;;;;;;;;;10361125;28;20025;-58
2023/07/30 07:58:28;;;;;;;1.15;1.02;;;;;;;;;;10363113;28;20022;-58
2023/07/30 08:03:28;;;;;;;0.90;0.90;;;;;;;;;;10358268;28;20465;-58
2023/07/30 08:08:29;;;;;;;0.90;0.80;;;;;;;;;;10355963;28;20026;-58
2023/07/30 08:13:29;;;;;;;1.50;0.98;;;;;;;;;;10362496;28;20025;-58
2023/07/30 08:18:30;;;;;;;2.70;1.10;;;;;;;;;;10362713;28;20026;-58
2023/07/30 08:23:31;;;;;;;1.13;0.82;;;;;;;;;;10359983;28;20033;-58
2023/07/30 08:28:31;;;;;;;0.80;0.80;;;;;;;;;;10355422;28;20026;-58
2023/07/30 08:33:32;;;;;;;0.70;0.70;;;;;;;;;;10356459;28;20081;-58
2023/07/30 08:38:33;;;;;;;2.25;0.90;;;;;;;;;;10371564;28;20050;-58
2023/07/30 08:43:35;;;;;;;1.75;1.00;;;;;;;;;;10371811;28;20362;-58
2023/07/30 08:48:35;;;;;;;1.50;0.80;;;;;;;;;;10357577;28;20084;-58
2023/07/30 08:53:36;;;;;;;1.10;0.70;;;;;;;;;;10370029;28;20344;-58
2023/07/30 08:58:37;;;;;;;1.25;0.80;;;;;;;;;;10352474;28;20041;-58
2023/07/30 09:03:40;;;;;;;2.50;1.27;;;;;;;;;;10349696;28;20092;-58
2023/07/30 09:08:40;;;;;;;1.67;0.90;;;;;;;;;;10361493;28;20036;-58
2023/07/30 09:13:42;;;;;;;3.05;1.08;;;;;;;;;;10356303;28;20032;-58
2023/07/30 09:18:45;;;;;;;3.00;0.88;;;;;;;;;;10368646;28;20425;-57
2023/07/30 09:23:47;;;;;;;0.73;0.73;;;;;;;;;;10364273;28;20041;-59
2023/07/30 09:28:47;;;;;;;1.52;1.10;;;;;;;;;;10361285;28;20374;-58
2023/07/30 09:33:48;;;;;;;1.58;0.95;;;;;;;;;;10366266;28;20034;-58
2023/07/30 09:38:49;;;;;;;2.10;0.85;;;;;;;;;;10364396;28;20097;-58
2023/07/30 09:43:58;;;;;;;8.43;1.00;;;;;;;;;;10356837;28;20474;-59
2023/07/30 09:49:00;;;;;;;1.65;0.82;;;;;;;;;;10345334;28;20026;-59
2023/07/30 09:54:02;;;;;;;1.55;0.80;;;;;;;;;;10346565;28;20045;-57
2023/07/30 09:59:09;;;;;;;8.02;1.40;;;;;;;;;;10348800;28;20375;-57
2023/07/30 10:04:11;;;;;;;2.05;1.15;;;;;;;;;;10361614;28;20042;-57
2023/07/30 10:09:13;;;;;;;1.10;1.10;;;;;;;;;;10340062;28;20037;-57
2023/07/30 10:14:14;;;;;;;1.50;1.40;;;;;;;;;;10347798;28;20034;-57
2023/07/30 10:19:16;;;;;;;6.22;1.63;;;;;;;;;;10344906;28;20057;-57
2023/07/30 10:24:17;;;;;;;1.85;1.67;;;;;;;;;;10337341;28;20426;-57
2023/07/30 10:29:20;;;;;;;2.70;1.55;;;;;;;;;;10360064;28;20038;-56
2023/07/30 10:34:21;;;;;;;1.98;1.60;;;;;;;;;;10351745;28;20450;-57
2023/07/30 10:39:27;;;;;;;1.65;1.40;;;;;;;;;;10347006;28;20497;-57
2023/07/30 10:44:32;;;;;;;1.48;1.38;;;;;;;;;;10352753;28;20077;-56
2023/07/30 10:49:46;;;;;;;1.67;1.58;;;;;;;;;;10358174;28;20578;-57
2023/07/30 10:54:47;;;;;;;1.80;1.60;;;;;;;;;;10341919;28;20041;-55
2023/07/30 10:59:48;;;;;;;1.90;1.70;;;;;;;;;;10352270;28;20332;-57
2023/07/30 11:04:48;;;;;;;1.67;1.58;;;;;;;;;;10364971;28;20450;-57
2023/07/30 11:10:02;;;;;;;4.50;1.98;;;;;;;;;;10351537;28;20019;-56
2023/07/30 11:15:04;;;;;;;6.32;1.83;;;;;;;;;;10342160;28;20144;-59
2023/07/30 11:20:05;;;;;;;1.95;1.75;;;;;;;;;;10359276;28;20038;-58
2023/07/30 11:25:16;;;;;;;2.40;2.00;;;;;;;;;;10352224;28;20052;-59
2023/07/30 11:30:18;;;;;;;2.88;2.28;;;;;;;;;;10349034;28;20111;-58
2023/07/30 11:35:19;;;;;;;3.05;2.30;;;;;;;;;;10354853;28;20488;-58
2023/07/30 11:40:20;;;;;;;3.92;2.22;;;;;;;;;;10361941;28;20042;-58
2023/07/30 11:45:23;;;;;;;2.45;2.17;;;;;;;;;;10328893;28;20030;-58
2023/07/30 11:50:23;;;;;;;3.15;2.13;;;;;;;;;;10347851;28;20397;-58
2023/07/30 11:55:38;;;;;;;2.75;2.10;;;;;;;;;;10355739;28;20087;-58
2023/07/30 12:00:41;;;;;;;2.60;2.40;;;;;;;;;;10364590;28;20551;-58
2023/07/30 12:05:41;;;;;;;3.17;2.10;;;;;;;;;;10361262;28;20366;-58
2023/07/30 12:10:49;;;;;;;2.78;2.10;;;;;;;;;;10347162;28;20045;-58
2023/07/30 12:15:54;;;;;;;2.17;1.98;;;;;;;;;;10342682;28;20121;-58
2023/07/30 12:20:56;;;;;;;2.65;2.13;;;;;;;;;;10360732;28;20568;-58
2023/07/30 12:25:56;;;;;;;3.28;2.13;;;;;;;;;;10361414;28;20061;-58
2023/07/30 12:30:57;;;;;;;2.65;2.00;;;;;;;;;;10357054;28;20120;-58
2023/07/30 12:35:57;;;;;;;3.08;2.22;;;;;;;;;;10353085;28;20391;-58
2023/07/30 12:40:58;;;;;;;2.63;1.83;;;;;;;;;;10349638;28;20033;-57
2023/07/30 12:45:59;;;;;;;2.33;2.03;;;;;;;;;;10358311;28;20054;-58
2023/07/30 12:51:00;;;;;;;2.15;2.00;;;;;;;;;;10360121;28;20022;-58
2023/07/30 12:56:00;;;;;;;2.10;1.80;;;;;;;;;;10357580;28;20509;-57
2023/07/30 13:01:04;;;;;;;2.42;2.22;;;;;;;;;;10341817;28;20479;-58
2023/07/30 13:06:04;;;;;;;2.20;1.90;;;;;;;;;;10357849;28;20116;-57
2023/07/30 13:11:05;;;;;;;3.13;2.22;;;;;;;;;;10348959;28;20124;-58
2023/07/30 13:16:06;;;;;;;4.53;2.00;;;;;;;;;;10356199;28;21594;-57
2023/07/30 13:21:07;;;;;;;2.25;2.00;;;;;;;;;;10325995;28;20449;-59
2023/07/30 13:26:08;;;;;;;1.70;1.60;;;;;;;;;;10351186;28;20113;-58
2023/07/30 13:31:08;;;;;;;2.38;1.70;;;;;;;;;;10335362;28;20030;-58
2023/07/30 13:36:09;;;;;;;2.03;1.70;;;;;;;;;;10350709;28;20045;-58
2023/07/30 13:41:10;;;;;;;2.00;1.80;;;;;;;;;;10359568;28;20038;-54
2023/07/30 13:46:10;;;;;;;4.90;2.20;;;;;;;;;;10343551;28;20038;-58
2023/07/30 13:51:11;;;;;;;5.40;2.05;;;;;;;;;;10353835;28;20469;-58
2023/07/30 13:56:11;;;;;;;3.25;1.92;;;;;;;;;;10343434;28;20030;-58
2023/07/30 14:01:12;;;;;;;6.05;2.10;;;;;;;;;;10352061;28;20042;-58
2023/07/30 14:06:13;;;;;;;2.00;1.73;;;;;;;;;;10347724;28;20575;-53
2023/07/30 14:11:14;;;;;;;2.50;1.70;;;;;;;;;;10343288;28;20064;-59
2023/07/30 14:16:15;;;;;;;5.05;1.85;;;;;;;;;;10346547;28;20221;-57
2023/07/30 14:21:15;;;;;;;4.05;2.30;;;;;;;;;;10343522;28;20022;-58
2023/07/30 14:26:16;;;;;;;5.95;1.95;;;;;;;;;;10345218;28;20034;-58
2023/07/30 14:31:17;;;;;;;2.15;1.65;;;;;;;;;;10343530;28;20026;-58
2023/07/30 14:36:17;;;;;;;2.58;1.90;;;;;;;;;;10355898;28;20038;-59
2023/07/30 14:41:18;;;;;;;2.15;1.95;;;;;;;;;;10354953;28;20044;-56
2023/07/30 14:46:18;;;;;;;3.35;1.85;;;;;;;;;;10347462;28;20041;-56
2023/07/30 14:51:19;;;;;;;6.97;1.98;;;;;;;;;;10343935;28;20037;-56
2023/07/30 14:56:20;;;;;;;5.03;1.73;;;;;;;;;;10345834;28;20041;-59
2023/07/30 15:01:22;;;;;;;3.20;2.10;;;;;;;;;;10346984;28;20026;-58
2023/07/30 15:06:25;;;;;;;3.17;1.80;;;;;;;;;;10348247;28;20057;-59
2023/07/30 15:11:27;;;;;;;1.83;1.52;;;;;;;;;;10339337;28;20026;-57
2023/07/30 15:16:27;;;;;;;2.90;1.70;;;;;;;;;;10335938;28;20502;-59
2023/07/30 15:21:30;;;;;;;2.35;1.90;;;;;;;;;;10341022;28;20050;-58
2023/07/30 15:26:31;;;;;;;1.73;1.55;;;;;;;;;;10340391;28;20056;-58
2023/07/30 15:31:31;;;;;;;3.03;1.80;;;;;;;;;;10336349;28;20053;-57
2023/07/30 15:36:32;;;;;;;1.90;1.70;;;;;;;;;;10341588;28;20061;-57
2023/07/30 15:41:33;;;;;;;1.77;1.55;;;;;;;;;;10328119;28;20096;-50
2023/07/30 15:46:33;;;;;;;3.75;1.73;;;;;;;;;;10327905;28;20387;-53
2023/07/30 15:51:34;;;;;;;2.38;1.92;;;;;;;;;;10327586;28;20023;-50
2023/07/30 15:56:35;;;;;;;1.60;1.48;;;;;;;;;;10340190;28;20029;-49
2023/07/30 16:01:35;;;;;;;2.55;1.75;;;;;;;;;;10328288;28;20022;-51
2023/07/30 16:06:36;;;;;;;1.60;1.50;;;;;;;;;;10339181;28;20027;-49
2023/07/30 16:11:38;;;;;;;2.70;1.88;;;;;;;;;;10327895;28;20023;-49
2023/07/30 16:16:40;;;;;;;1.80;1.70;;;;;;;;;;10350219;28;20041;-49
2023/07/30 16:21:43;;;;;;;1.80;1.60;;;;;;;;;;10344332;28;20234;-48
2023/07/30 16:26:45;;;;;;;4.57;1.60;;;;;;;;;;10360059;28;20033;-49
2023/07/30 16:31:45;;;;;;;1.88;1.70;;;;;;;;;;10370149;28;20117;-49
2023/07/30 16:36:46;;;;;;;1.58;1.42;;;;;;;;;;10333991;28;20050;-49
2023/07/30 16:41:46;;;;;;;1.70;1.60;;;;;;;;;;10334638;28;20042;-49
2023/07/30 16:46:47;;;;;;;1.88;1.40;;;;;;;;;;10356623;28;20486;-55
2023/07/30 16:51:48;;;;;;;2.45;1.92;;;;;;;;;;10347202;28;20081;-58
2023/07/30 16:56:48;;;;;;;1.77;1.67;;;;;;;;;;10344900;28;20056;-55
2023/07/30 17:01:49;;;;;;;3.05;1.73;;;;;;;;;;10347975;28;20019;-55
2023/07/30 17:06:50;;;;;;;1.55;1.20;;;;;;;;;;10332279;28;20022;-55
2023/07/30 17:11:51;;;;;;;2.35;1.70;;;;;;;;;;10351309;28;20031;-57
2023/07/30 17:16:51;;;;;;;1.92;1.73;;;;;;;;;;10340144;28;20030;-58
2023/07/30 17:21:53;;;;;;;2.55;1.90;;;;;;;;;;10357422;28;20056;-58
2023/07/30 17:26:53;;;;;;;2.45;1.77;;;;;;;;;;10341988;28;20100;-58
2023/07/30 17:31:54;;;;;;;1.80;1.70;;;;;;;;;;10342661;28;20080;-55
2023/07/30 17:36:55;;;;;;;2.72;2.00;;;;;;;;;;10343769;28;20050;-57
2023/07/30 17:41:56;;;;;;;1.52;1.42;;;;;;;;;;10341476;28;20026;-58
2023/07/30 17:46:56;;;;;;;1.70;1.60;;;;;;;;;;10331457;28;20101;-56
2023/07/30 17:51:57;;;;;;;2.22;2.03;;;;;;;;;;10356238;28;20029;-57
2023/07/30 17:56:57;;;;;;;3.13;1.83;;;;;;;;;;10357391;28;20031;-57
2023/07/30 18:01:58;;;;;;;2.00;1.83;;;;;;;;;;10331978;28;20483;-57
2023/07/30 18:06:59;;;;;;;1.67;1.58;;;;;;;;;;10341481;28;20414;-53
2023/07/30 18:12:00;;;;;;;1.80;1.70;;;;;;;;;;10345929;28;20084;-55
2023/07/30 18:17:00;;;;;;;3.22;1.75;;;;;;;;;;10339996;28;20018;-48
2023/07/30 18:22:01;;;;;;;2.35;1.70;;;;;;;;;;10342310;28;20430;-53
2023/07/30 18:27:01;;;;;;;1.67;1.58;;;;;;;;;;10354349;28;20489;-56
2023/07/30 18:32:06;;;;;;;1.75;1.65;;;;;;;;;;10348897;28;20107;-55
2023/07/30 18:37:07;;;;;;;2.22;2.00;;;;;;;;;;10346736;28;20037;-57
2023/07/30 18:42:08;;;;;;;1.92;1.77;;;;;;;;;;10354581;28;20030;-57
2023/07/30 18:47:08;;;;;;;5.75;2.15;;;;;;;;;;10362363;28;20030;-58
2023/07/30 18:52:09;;;;;;;3.75;2.00;;;;;;;;;;10359409;28;20026;-58
2023/07/30 18:57:10;;;;;;;3.15;1.90;;;;;;;;;;10346198;28;20038;-58
2023/07/30 19:02:11;;;;;;;2.75;1.83;;;;;;;;;;10346547;28;20099;-58
2023/07/30 19:07:12;;;;;;;2.03;1.85;;;;;;;;;;10354189;28;21040;-58
2023/07/30 19:12:14;;;;;;;3.85;2.13;;;;;;;;;;10354153;28;20033;-57
2023/07/30 19:17:20;;;;;;;2.30;1.75;;;;;;;;;;10358456;28;20389;-58
2023/07/30 19:22:22;;;;;;;3.53;2.45;;;;;;;;;;10351705;28;20033;-58
2023/07/30 19:27:23;;;;;;;4.25;1.98;;;;;;;;;;10332795;28;20037;-59
2023/07/30 19:32:24;;;;;;;3.38;2.20;;;;;;;;;;10337670;28;20057;-58
2023/07/30 19:37:25;;;;;;;4.25;2.10;;;;;;;;;;10340727;28;20050;-59
2023/07/30 19:42:25;;;;;;;4.28;2.58;;;;;;;;;;10335698;28;20092;-58
2023/07/30 19:47:26;;;;;;;18.92;3.08;;;;;;;;;;10346856;28;20038;-59
2023/07/30 19:52:30;;;;;;;10.32;2.55;;;;;;;;;;10354715;28;20029;-59
2023/07/30 19:57:31;;;;;;;5.43;2.55;;;;;;;;;;10339864;28;20064;-59
2023/07/30 20:02:32;;;;;;;5.05;2.58;;;;;;;;;;10358358;28;20022;-58
2023/07/30 20:07:33;;;;;;;5.93;2.15;;;;;;;;;;10335661;28;20026;-58
2023/07/30 20:12:33;;;;;;;2.95;2.10;;;;;;;;;;10336290;28;20034;-56
2023/07/30 20:17:34;;;;;;;3.97;2.15;;;;;;;;;;10371060;28;20022;-56
2023/07/30 20:22:34;;;;;;;6.65;2.63;;;;;;;;;;10359564;28;20029;-56
2023/07/30 20:27:35;;;;;;;2.78;2.10;;;;;;;;;;10359772;28;20014;-58
2023/07/30 20:32:38;;;;;;;3.70;2.42;;;;;;;;;;10331433;28;20032;-59
2023/07/30 20:37:38;;;;;;;5.30;2.10;;;;;;;;;;10333166;28;20077;-59
2023/07/30 20:42:39;;;;;;;3.28;2.00;;;;;;;;;;10345940;28;20034;-59
2023/07/30 20:47:40;;;;;;;4.90;2.28;;;;;;;;;;10356728;28;20034;-59
2023/07/30 20:52:41;;;;;;;5.00;2.10;;;;;;;;;;10370500;28;20072;-60
2023/07/30 20:57:43;;;;;;;3.20;2.20;;;;;;;;;;10369905;28;20088;-59
2023/07/30 21:02:43;;;;;;;3.13;2.10;;;;;;;;;;10368405;28;20455;-59
2023/07/30 21:07:44;;;;;;;3.83;2.00;;;;;;;;;;10366034;28;20042;-58
2023/07/30 21:12:45;;;;;;;3.28;1.88;;;;;;;;;;10353683;28;20028;-58
2023/07/30 21:17:45;;;;;;;4.70;1.98;;;;;;;;;;10345770;28;20053;-59
2023/07/30 21:22:46;;;;;;;2.42;2.22;;;;;;;;;;10356163;28;20026;-59
2023/07/30 21:27:47;;;;;;;5.03;2.08;;;;;;;;;;10335289;28;20060;-58
2023/07/30 21:32:48;;;;;;;3.50;2.35;;;;;;;;;;10357499;28;20367;-58
2023/07/30 21:37:48;;;;;;;4.07;2.92;;;;;;;;;;10355817;28;20045;-58
2023/07/30 21:42:49;;;;;;;2.47;2.28;;;;;;;;;;10337517;28;20034;-58
2023/07/30 21:47:53;;;;;;;6.65;2.50;;;;;;;;;;10331221;28;20027;-59
2023/07/30 21:52:53;;;;;;;5.90;2.83;;;;;;;;;;10339008;28;20450;-58
2023/07/30 21:57:54;;;;;;;4.35;2.33;;;;;;;;;;10351074;28;20037;-58
2023/07/30 22:02:59;;;;;;;5.45;2.58;;;;;;;;;;10355693;28;20026;-58
2023/07/30 22:07:59;;;;;;;3.60;2.50;;;;;;;;;;10353548;28;20370;-58
2023/07/30 22:13:00;;;;;;;2.40;2.20;;;;;;;;;;10352683;28;20038;-57
2023/07/30 22:18:00;;;;;;;2.30;2.05;;;;;;;;;;10329634;28;20026;-58
2023/07/30 22:23:02;;;;;;;2.75;2.00;;;;;;;;;;10330376;28;20037;-57
2023/07/30 22:28:02;;;;;;;2.95;2.40;;;;;;;;;;10329858;28;20030;-56
2023/07/30 22:33:03;;;;;;;4.35;2.38;;;;;;;;;;10360723;28;20473;-58
2023/07/30 22:38:03;;;;;;;2.50;2.22;;;;;;;;;;10333783;28;20085;-58
2023/07/30 22:43:04;;;;;;;4.70;2.47;;;;;;;;;;10331265;28;20038;-58
2023/07/30 22:48:05;;;;;;;3.47;2.17;;;;;;;;;;10354156;28;20022;-58
2023/07/30 22:53:06;;;;;;;4.38;2.47;;;;;;;;;;10352978;28;20030;-59
2023/07/30 22:58:07;;;;;;;4.00;2.45;;;;;;;;;;10365965;28;20081;-59
2023/07/30 23:03:08;;;;;;;3.80;2.40;;;;;;;;;;10362544;28;20123;-58
2023/07/30 23:08:08;;;;;;;2.38;2.17;;;;;;;;;;10364866;28;20025;-59
2023/07/30 23:13:09;;;;;;;3.97;2.25;;;;;;;;;;10353760;28;20042;-59
2023/07/30 23:18:10;;;;;;;3.65;2.30;;;;;;;;;;10359784;28;20030;-59
2023/07/30 23:23:10;;;;;;;2.85;2.30;;;;;;;;;;10329037;28;20076;-59
2023/07/30 23:28:11;;;;;;;7.72;2.55;;;;;;;;;;10335842;28;20027;-59
2023/07/30 23:33:11;;;;;;;2.22;2.05;;;;;;;;;;10345820;28;20042;-59
2023/07/30 23:38:12;;;;;;;4.15;2.38;;;;;;;;;;10350082;28;20046;-59
2023/07/30 23:43:13;;;;;;;8.23;2.33;;;;;;;;;;10348612;28;20222;-58
2023/07/30 23:48:13;;;;;;;2.95;2.13;;;;;;;;;;10334993;28;20026;-59
2023/07/30 23:53:14;;;;;;;9.70;2.40;;;;;;;;;;10338042;28;20034;-59
2023/07/30 23:58:14;;;;;;;5.20;2.30;;;;;;;;;;10344950;28;20025;-59
